Time;durP1;ratioP1;P1;durP2;ratioP2;P2;SDS_P1;SDS_P2;PMS_P1;PMS_P2;Temp;Humidity;BMP_temperature;BMP_pressure;BME280_temperature;BME280_humidity;BME280_pressure;Samples;Min_cycle;Max_cycle;Signal;HPM_P1;HPM_P2
2023/03/27 00:01:53;;;;;;;4.03;0.57;;;;;;;2.97;75.15;100259.94;6146791;28;20081;-72
2023/03/27 00:04:49;;;;;;;3.53;0.60;;;;;;;3.04;74.25;100255.97;6146362;28;20771;-71
2023/03/27 00:07:47;;;;;;;6.87;1.23;;;;;;;2.97;74.76;100270.41;6146822;28;20028;-71
2023/03/27 00:10:42;;;;;;;2.15;0.82;;;;;;;3.01;74.78;100292.84;6146407;28;20664;-71
2023/03/27 00:13:38;;;;;;;4.43;0.57;;;;;;;2.99;75.15;100298.16;6146978;28;20028;-72
2023/03/27 00:16:33;;;;;;;5.28;0.70;;;;;;;2.98;74.48;100303.53;6146547;28;20024;-72
2023/03/27 00:19:29;;;;;;;2.28;0.88;;;;;;;2.87;73.01;100296.44;6145905;28;20035;-71
2023/03/27 00:22:24;;;;;;;7.63;1.33;;;;;;;2.90;72.76;100306.69;6146481;28;20039;-71
2023/03/27 00:25:21;;;;;;;4.53;0.77;;;;;;;2.96;73.12;100321.94;6148202;28;20016;-71
2023/03/27 00:28:17;;;;;;;4.47;0.60;;;;;;;2.90;74.13;100306.69;6171004;28;20528;-71
2023/03/27 00:31:14;;;;;;;2.13;0.50;;;;;;;2.85;73.46;100313.19;6141662;28;20035;-71
2023/03/27 00:34:10;;;;;;;3.45;0.70;;;;;;;2.76;74.11;100319.06;6145779;28;20036;-71
2023/03/27 00:37:06;;;;;;;2.08;0.60;;;;;;;2.69;73.12;100344.00;6146455;28;20055;-71
2023/03/27 00:40:06;;;;;;;3.70;0.93;;;;;;;2.53;74.27;100338.13;6146110;28;20416;-71
2023/03/27 00:43:18;;;;;;;5.07;0.88;;;;;;;2.37;73.28;100344.38;6146371;28;20160;-71
2023/03/27 00:46:40;;;;;;;5.07;0.82;;;;;;;2.32;74.84;100345.63;6157049;28;20071;-72
2023/03/27 00:49:36;;;;;;;2.13;0.55;;;;;;;2.30;74.82;100371.06;6164080;28;20039;-72
2023/03/27 00:52:31;;;;;;;4.57;0.75;;;;;;;2.08;76.00;100363.81;6170544;28;20485;-72
2023/03/27 00:55:28;;;;;;;1.77;0.80;;;;;;;1.93;75.62;100362.19;6158640;28;20471;-71
2023/03/27 00:58:29;;;;;;;11.60;1.02;;;;;;;1.91;76.46;100379.75;6186213;27;20035;-71
2023/03/27 01:01:27;;;;;;;3.03;0.90;;;;;;;1.71;78.21;100386.25;6169514;28;20035;-71
2023/03/27 01:04:23;;;;;;;3.55;0.55;;;;;;;1.54;78.89;100391.72;6162036;28;20032;-71
2023/03/27 01:07:18;;;;;;;3.78;1.00;;;;;;;1.36;79.60;100377.19;6168989;28;20112;-71
2023/03/27 01:10:14;;;;;;;1.88;0.70;;;;;;;1.35;80.12;100390.38;6170307;28;20468;-71
2023/03/27 01:13:18;;;;;;;2.40;0.68;;;;;;;1.26;80.26;100398.75;6168733;28;20395;-71
2023/03/27 01:16:37;;;;;;;8.38;0.90;;;;;;;1.12;80.93;100397.84;6170167;28;20063;-71
2023/03/27 01:19:37;;;;;;;4.18;0.93;;;;;;;1.09;81.54;100402.41;6154878;28;20036;-71
2023/03/27 01:22:35;;;;;;;4.88;1.00;;;;;;;0.96;81.73;100412.75;6147869;28;20391;-71
2023/03/27 01:26:18;;;;;;;3.33;0.85;;;;;;;0.86;83.39;100424.69;6148266;28;20031;-72
2023/03/27 01:29:37;;;;;;;6.03;1.10;;;;;;;0.72;82.53;100406.41;6108952;28;20031;-72
2023/03/27 01:32:48;;;;;;;6.25;0.70;;;;;;;0.65;82.63;100428.59;6176904;28;20019;-72
2023/03/27 01:35:56;;;;;;;6.03;0.90;;;;;;;0.56;83.56;100434.34;6185739;27;20012;-72
2023/03/27 01:39:10;;;;;;;1.83;0.93;;;;;;;0.60;84.36;100443.66;6150989;28;20066;-72
2023/03/27 01:42:17;;;;;;;4.57;0.68;;;;;;;0.51;83.79;100449.44;6157117;28;20054;-72
2023/03/27 01:45:47;;;;;;;4.32;0.77;;;;;;;0.52;84.21;100453.69;6174217;28;20054;-72
2023/03/27 01:48:50;;;;;;;2.92;0.65;;;;;;;0.44;84.46;100461.13;6174639;28;20039;-70
2023/03/27 01:51:50;;;;;;;2.80;0.60;;;;;;;0.39;84.63;100448.34;6174630;28;20451;-70
2023/03/27 01:54:54;;;;;;;4.90;0.82;;;;;;;0.32;85.09;100459.22;6169308;28;20039;-70
2023/03/27 01:57:59;;;;;;;3.13;0.63;;;;;;;0.37;84.72;100475.44;6184074;27;20059;-70
2023/03/27 02:00:59;;;;;;;3.88;0.57;;;;;;;0.24;86.13;100464.88;6173109;28;20051;-70
2023/03/27 02:03:56;;;;;;;3.85;0.60;;;;;;;0.19;85.91;100482.53;6153498;28;20040;-72
2023/03/27 02:06:57;;;;;;;3.20;0.82;;;;;;;0.20;86.44;100493.81;6148356;28;20063;-72
2023/03/27 02:09:56;;;;;;;1.02;0.40;;;;;;;0.13;86.82;100498.53;6148108;28;20032;-72
2023/03/27 02:12:57;;;;;;;4.22;0.55;;;;;;;0.14;87.15;100494.13;6148342;28;20051;-72
2023/03/27 02:15:55;;;;;;;2.75;0.93;;;;;;;0.06;87.09;100504.16;6160812;28;20135;-72
2023/03/27 02:18:55;;;;;;;2.72;0.80;;;;;;;-0.05;88.00;100486.50;6149400;28;20170;-72
2023/03/27 02:21:50;;;;;;;2.75;0.80;;;;;;;-0.05;88.65;100499.53;6161289;28;20183;-72
2023/03/27 02:24:47;;;;;;;5.32;0.90;;;;;;;-0.21;88.88;100493.47;6160251;28;20048;-71
2023/03/27 02:27:46;;;;;;;2.08;0.70;;;;;;;-0.21;89.66;100496.09;6149294;28;20031;-71
2023/03/27 02:30:50;;;;;;;6.75;1.20;;;;;;;-0.33;89.22;100495.00;6147689;28;20036;-72
2023/03/27 02:33:57;;;;;;;6.15;0.88;;;;;;;-0.23;90.45;100516.19;6151152;28;20033;-71
2023/03/27 02:37:05;;;;;;;2.03;0.55;;;;;;;-0.31;89.59;100527.03;6173473;28;20108;-71
2023/03/27 02:40:08;;;;;;;6.25;0.82;;;;;;;-0.47;90.46;100528.75;6173641;28;20031;-72
2023/03/27 02:43:11;;;;;;;3.78;1.08;;;;;;;-0.52;90.95;100533.38;6172752;28;20502;-72
2023/03/27 02:46:24;;;;;;;4.50;0.90;;;;;;;-0.44;90.99;100533.81;6173000;28;20063;-72
2023/03/27 02:49:27;;;;;;;2.65;0.60;;;;;;;-0.51;91.49;100537.63;6173369;28;20035;-72
2023/03/27 02:52:30;;;;;;;3.10;0.60;;;;;;;-0.63;91.49;100513.13;6172227;28;20076;-72
2023/03/27 02:55:32;;;;;;;4.05;1.25;;;;;;;-0.49;90.99;100535.78;6160862;28;20455;-71
2023/03/27 02:58:38;;;;;;;4.63;0.63;;;;;;;-0.55;91.39;100519.66;6153035;28;20063;-70
2023/03/27 03:01:34;;;;;;;2.85;0.85;;;;;;;-0.48;91.64;100523.63;6146699;28;20032;-72
2023/03/27 03:04:40;;;;;;;3.38;0.80;;;;;;;-0.31;91.91;100532.22;6146330;28;20459;-72
2023/03/27 03:07:36;;;;;;;4.57;1.15;;;;;;;-0.27;91.95;100535.53;6148167;28;20067;-71
2023/03/27 03:10:32;;;;;;;7.65;0.93;;;;;;;-0.29;91.29;100548.63;6146646;28;20541;-72
2023/03/27 03:13:27;;;;;;;2.77;1.00;;;;;;;-0.24;92.01;100567.44;6147157;28;20036;-72
2023/03/27 03:16:22;;;;;;;3.17;0.73;;;;;;;-0.22;91.26;100578.59;6147706;28;20065;-72
2023/03/27 03:19:18;;;;;;;3.57;0.83;;;;;;;-0.22;91.36;100564.78;6167132;28;20047;-71
2023/03/27 03:22:13;;;;;;;7.00;1.10;;;;;;;-0.23;91.08;100563.06;6172282;28;20107;-72
2023/03/27 03:25:11;;;;;;;5.40;0.95;;;;;;;-0.32;91.25;100547.91;6172015;28;20072;-71
2023/03/27 03:28:08;;;;;;;5.55;1.05;;;;;;;-0.27;90.91;100575.41;6172343;28;20081;-71
2023/03/27 03:31:04;;;;;;;2.75;0.75;;;;;;;-0.24;90.31;100577.00;6171594;28;20184;-72
2023/03/27 03:34:01;;;;;;;3.95;0.82;;;;;;;-0.31;89.75;100560.03;6146770;28;20024;-71
2023/03/27 03:36:56;;;;;;;5.55;0.77;;;;;;;-0.11;88.45;100575.47;6147252;28;20028;-72
2023/03/27 03:39:52;;;;;;;10.27;1.13;;;;;;;-0.17;88.50;100573.19;6163560;28;20041;-72
2023/03/27 03:42:49;;;;;;;8.20;0.80;;;;;;;-0.12;88.86;100589.41;6171997;28;20031;-72
2023/03/27 03:45:44;;;;;;;4.18;0.90;;;;;;;-0.17;89.21;100591.41;6165544;28;20396;-72
2023/03/27 03:48:40;;;;;;;5.93;0.83;;;;;;;-0.19;89.49;100599.28;6147304;28;20047;-71
2023/03/27 03:51:36;;;;;;;5.55;1.08;;;;;;;-0.14;89.66;100605.13;6146918;28;20039;-72
2023/03/27 03:54:31;;;;;;;4.40;1.05;;;;;;;-0.25;89.85;100596.19;6159547;28;20458;-72
2023/03/27 03:57:27;;;;;;;4.53;0.90;;;;;;;-0.27;90.11;100593.66;6152323;28;20043;-72
2023/03/27 04:00:23;;;;;;;7.70;1.00;;;;;;;-0.06;90.27;100626.41;6180803;28;20040;-72
2023/03/27 04:03:19;;;;;;;3.72;1.00;;;;;;;-0.11;90.30;100628.38;6150088;28;20396;-71
2023/03/27 04:06:19;;;;;;;2.88;0.77;;;;;;;-0.05;90.65;100620.25;6146878;28;20031;-71
2023/03/27 04:09:14;;;;;;;1.58;0.70;;;;;;;0.04;90.47;100628.50;6147095;28;20122;-72
2023/03/27 04:12:10;;;;;;;4.47;0.73;;;;;;;0.16;90.12;100638.28;6146894;28;20035;-72
2023/03/27 04:15:06;;;;;;;5.50;1.20;;;;;;;0.17;89.34;100622.56;6161289;28;20036;-71
2023/03/27 04:18:01;;;;;;;4.45;0.88;;;;;;;0.20;89.17;100629.38;6171326;28;20034;-70
2023/03/27 04:21:00;;;;;;;0.98;0.60;;;;;;;0.17;89.52;100634.75;6171140;28;20063;-72
2023/03/27 04:24:01;;;;;;;5.95;0.93;;;;;;;0.22;89.91;100649.22;6170612;28;20020;-70
2023/03/27 04:27:02;;;;;;;3.97;0.80;;;;;;;0.12;90.07;100631.53;6171053;28;20430;-71
2023/03/27 04:29:57;;;;;;;5.38;1.33;;;;;;;0.20;90.01;100645.84;6148801;28;20035;-72
2023/03/27 04:32:53;;;;;;;10.67;1.40;;;;;;;0.20;89.69;100650.22;6146505;28;20396;-71
2023/03/27 04:35:51;;;;;;;4.00;0.70;;;;;;;0.23;89.75;100660.50;6145479;28;20020;-72
2023/03/27 04:38:46;;;;;;;4.70;1.17;;;;;;;0.18;89.67;100652.94;6146406;28;20040;-71
2023/03/27 04:41:48;;;;;;;8.77;1.13;;;;;;;0.18;89.59;100667.72;6148418;28;20101;-71
2023/03/27 04:44:44;;;;;;;5.57;0.90;;;;;;;0.05;90.83;100656.25;6169024;28;20059;-70
2023/03/27 04:47:40;;;;;;;5.22;1.20;;;;;;;0.08;90.88;100659.56;6146337;28;20036;-71
2023/03/27 04:50:36;;;;;;;6.20;1.20;;;;;;;0.17;91.25;100666.03;6146101;28;20036;-73
2023/03/27 04:53:34;;;;;;;3.63;1.02;;;;;;;0.21;91.05;100665.78;6145554;28;20039;-71
2023/03/27 04:56:32;;;;;;;2.15;0.80;;;;;;;0.31;91.08;100681.78;6154376;28;20088;-71
2023/03/27 04:59:32;;;;;;;5.85;1.00;;;;;;;0.29;91.17;100688.84;6159003;28;20438;-72
2023/03/27 05:02:27;;;;;;;3.70;0.98;;;;;;;0.27;91.03;100688.91;6162152;28;20035;-72
2023/03/27 05:05:24;;;;;;;4.97;0.87;;;;;;;0.04;91.65;100683.25;6144915;28;20483;-72
2023/03/27 05:08:19;;;;;;;7.70;1.10;;;;;;;0.11;92.55;100692.44;6145768;28;20292;-72
2023/03/27 05:11:14;;;;;;;4.70;0.87;;;;;;;-0.06;92.86;100686.34;6159507;28;20047;-73
2023/03/27 05:14:10;;;;;;;5.03;0.90;;;;;;;0.03;94.07;100715.44;6169536;28;20163;-73
2023/03/27 05:17:05;;;;;;;9.23;0.90;;;;;;;0.05;94.35;100708.38;6168220;28;20277;-72
2023/03/27 05:20:02;;;;;;;4.43;0.80;;;;;;;0.09;94.58;100715.97;6170249;28;20032;-72
2023/03/27 05:22:57;;;;;;;4.70;0.88;;;;;;;0.11;94.65;100718.50;6170148;28;20508;-72
2023/03/27 05:25:55;;;;;;;7.40;1.57;;;;;;;0.18;95.11;100727.69;6149190;28;20036;-73
2023/03/27 05:28:51;;;;;;;6.05;1.05;;;;;;;0.16;95.14;100725.16;6145602;28;20028;-72
2023/03/27 05:31:46;;;;;;;4.90;1.00;;;;;;;0.10;94.51;100716.81;6145294;28;20519;-73
2023/03/27 05:34:42;;;;;;;8.95;1.27;;;;;;;0.17;94.49;100725.97;6144869;28;20032;-72
2023/03/27 05:37:37;;;;;;;6.80;1.63;;;;;;;0.18;94.53;100735.50;6151011;28;20028;-73
2023/03/27 05:40:33;;;;;;;6.37;1.07;;;;;;;0.22;95.00;100737.03;6147469;28;20749;-72
2023/03/27 05:43:28;;;;;;;7.28;1.80;;;;;;;0.20;95.02;100728.44;6144815;28;20028;-72
2023/03/27 05:46:24;;;;;;;8.47;1.30;;;;;;;0.31;95.35;100741.75;6145079;28;20522;-72
2023/03/27 05:49:19;;;;;;;6.13;1.17;;;;;;;0.51;95.05;100765.88;6145303;28;20028;-73
2023/03/27 05:52:14;;;;;;;7.17;0.80;;;;;;;0.47;94.19;100742.63;6148826;28;20047;-72
2023/03/27 05:55:10;;;;;;;6.20;1.52;;;;;;;0.63;94.67;100743.47;6161304;28;20648;-72
2023/03/27 05:58:08;;;;;;;4.22;1.20;;;;;;;0.66;94.89;100753.75;6145225;28;20085;-72
2023/03/27 06:01:04;;;;;;;5.95;1.00;;;;;;;0.45;97.18;100755.75;6160816;28;20050;-72
2023/03/27 06:04:00;;;;;;;9.30;1.38;;;;;;;0.30;98.23;100768.75;6148130;28;20062;-72
2023/03/27 06:06:55;;;;;;;5.87;1.30;;;;;;;0.19;98.53;100758.06;6153933;28;20088;-72
2023/03/27 06:09:50;;;;;;;9.60;1.23;;;;;;;0.23;99.39;100760.41;6167321;28;20040;-72
2023/03/27 06:12:48;;;;;;;2.90;0.80;;;;;;;0.43;98.53;100775.03;6169411;28;20042;-72
2023/03/27 06:15:43;;;;;;;7.38;1.02;;;;;;;0.40;98.26;100762.13;6168567;28;20361;-72
2023/03/27 06:18:38;;;;;;;5.22;0.80;;;;;;;0.57;97.25;100791.59;6158742;28;20024;-72
2023/03/27 06:21:34;;;;;;;4.57;1.20;;;;;;;0.72;96.51;100789.13;6150738;28;20061;-72
2023/03/27 06:24:29;;;;;;;7.17;1.27;;;;;;;0.78;95.95;100779.19;6177434;28;20203;-72
2023/03/27 06:27:25;;;;;;;7.50;1.10;;;;;;;0.85;95.64;100770.09;6149435;28;20035;-72
2023/03/27 06:30:22;;;;;;;10.15;1.77;;;;;;;0.98;94.52;100778.13;6148794;28;20040;-71
2023/03/27 06:33:18;;;;;;;4.68;1.30;;;;;;;1.14;94.25;100792.84;6148596;28;20467;-71
2023/03/27 06:36:13;;;;;;;6.75;1.63;;;;;;;1.19;93.38;100801.28;6166449;28;20066;-71
2023/03/27 06:39:08;;;;;;;5.78;1.30;;;;;;;1.25;93.45;100794.03;6173496;28;20382;-71
2023/03/27 06:42:04;;;;;;;7.18;1.10;;;;;;;1.47;92.75;100805.78;6173405;28;20080;-71
2023/03/27 06:44:59;;;;;;;8.13;1.10;;;;;;;1.52;91.51;100813.41;6172446;28;20484;-71
2023/03/27 06:47:57;;;;;;;7.43;1.00;;;;;;;1.49;91.01;100805.72;6173321;28;20149;-71
2023/03/27 06:50:53;;;;;;;4.03;1.20;;;;;;;1.67;90.56;100820.34;6148587;28;20039;-71
2023/03/27 06:53:48;;;;;;;3.57;0.97;;;;;;;1.67;90.54;100820.34;6147944;28;20024;-71
2023/03/27 06:56:43;;;;;;;5.90;2.03;;;;;;;1.78;89.05;100816.22;6148059;28;20262;-71
2023/03/27 06:59:38;;;;;;;9.63;1.33;;;;;;;1.96;89.17;100827.38;6153810;28;20706;-71
2023/03/27 07:02:34;;;;;;;7.47;1.37;;;;;;;2.01;88.18;100830.56;6158732;28;20038;-71
2023/03/27 07:05:35;;;;;;;1.90;1.08;;;;;;;2.17;88.42;100823.53;6171926;28;20040;-71
2023/03/27 07:08:30;;;;;;;3.85;0.95;;;;;;;2.27;87.82;100829.88;6172691;28;20036;-71
2023/03/27 07:11:25;;;;;;;5.23;1.00;;;;;;;2.42;87.25;100850.84;6170649;28;20388;-71
2023/03/27 07:14:22;;;;;;;2.93;1.10;;;;;;;2.59;86.05;100848.03;6163524;28;20036;-71
2023/03/27 07:17:17;;;;;;;6.50;1.55;;;;;;;2.63;84.68;100834.69;6146921;28;20428;-71
2023/03/27 07:20:13;;;;;;;3.22;0.80;;;;;;;2.63;83.12;100846.94;6146579;28;20040;-71
2023/03/27 07:23:08;;;;;;;3.93;0.77;;;;;;;2.62;83.65;100847.84;6146993;28;20042;-71
2023/03/27 07:26:04;;;;;;;5.57;1.20;;;;;;;2.73;83.96;100848.91;6146778;28;20032;-71
2023/03/27 07:29:00;;;;;;;6.18;0.95;;;;;;;2.84;82.75;100869.19;6159610;28;20476;-71
2023/03/27 07:31:55;;;;;;;3.05;0.90;;;;;;;2.86;83.69;100851.59;6172066;28;20032;-72
2023/03/27 07:34:51;;;;;;;5.47;1.03;;;;;;;2.74;83.08;100855.84;6170966;28;20495;-71
2023/03/27 07:37:46;;;;;;;5.50;1.30;;;;;;;2.63;83.89;100873.13;6172055;28;20039;-71
2023/03/27 07:40:42;;;;;;;5.83;0.90;;;;;;;2.55;84.83;100864.88;6171778;28;20043;-71
2023/03/27 07:43:38;;;;;;;3.15;0.80;;;;;;;2.64;84.98;100877.41;6154220;28;20038;-71
2023/03/27 07:46:33;;;;;;;9.53;1.90;;;;;;;2.65;84.20;100892.19;6147251;28;20036;-71
2023/03/27 07:49:28;;;;;;;2.27;1.20;;;;;;;2.81;86.04;100887.72;6147081;28;20028;-71
2023/03/27 07:52:24;;;;;;;3.43;1.07;;;;;;;2.88;84.68;100894.28;6147133;28;20036;-71
2023/03/27 07:55:21;;;;;;;5.20;1.07;;;;;;;2.61;85.75;100894.13;6145857;28;20074;-71
2023/03/27 07:58:17;;;;;;;3.65;1.08;;;;;;;2.52;85.24;100899.09;6148229;28;20039;-71
2023/03/27 08:01:13;;;;;;;5.47;1.00;;;;;;;2.45;85.59;100889.91;6164766;28;20110;-71
2023/03/27 08:04:08;;;;;;;3.13;0.80;;;;;;;2.64;86.29;100887.88;6148596;28;20032;-71
2023/03/27 08:07:04;;;;;;;4.20;1.10;;;;;;;3.18;84.81;100902.84;6146880;28;20028;-71
2023/03/27 08:09:59;;;;;;;4.63;1.10;;;;;;;3.48;82.70;100903.56;6146386;28;20031;-71
2023/03/27 08:12:54;;;;;;;5.63;1.00;;;;;;;3.63;81.76;100877.34;6146904;28;20491;-71
2023/03/27 08:15:50;;;;;;;3.70;1.10;;;;;;;3.72;80.83;100901.19;6157877;28;20159;-71
2023/03/27 08:18:48;;;;;;;4.40;1.13;;;;;;;3.85;80.56;100898.63;6148805;28;20036;-71
2023/03/27 08:21:44;;;;;;;10.68;1.63;;;;;;;3.97;79.45;100905.69;6146524;28;20115;-71
2023/03/27 08:24:39;;;;;;;4.45;1.27;;;;;;;4.10;79.25;100898.72;6145464;28;20047;-71
2023/03/27 08:27:35;;;;;;;2.63;0.80;;;;;;;4.33;79.45;100905.91;6146267;28;20594;-71
2023/03/27 08:30:30;;;;;;;4.88;1.10;;;;;;;4.36;77.92;100896.97;6145836;28;20449;-71
2023/03/27 08:33:28;;;;;;;6.17;1.33;;;;;;;4.54;76.45;100907.09;6144921;28;20040;-71
2023/03/27 08:36:23;;;;;;;7.18;1.70;;;;;;;4.49;76.16;100901.31;6148221;28;20107;-71
2023/03/27 08:39:21;;;;;;;5.03;1.13;;;;;;;4.34;74.65;100891.00;6145578;28;20148;-71
2023/03/27 08:42:21;;;;;;;5.10;1.23;;;;;;;4.62;75.03;100896.09;6145645;28;20058;-71
2023/03/27 08:45:21;;;;;;;6.38;1.20;;;;;;;4.84;74.36;100921.75;6147144;28;20095;-71
2023/03/27 08:48:20;;;;;;;6.63;0.93;;;;;;;4.33;74.70;100919.03;6181580;28;20055;-71
2023/03/27 08:51:32;;;;;;;10.35;2.15;;;;;;;4.87;75.53;100913.63;6169259;28;20030;-71
2023/03/27 08:54:29;;;;;;;3.67;1.15;;;;;;;5.13;75.51;100928.47;6168197;28;20031;-71
2023/03/27 08:57:30;;;;;;;4.95;0.90;;;;;;;4.79;72.67;100920.25;6144770;28;20096;-71
2023/03/27 09:00:30;;;;;;;2.28;0.95;;;;;;;4.62;72.92;100917.91;6145555;28;20488;-72
2023/03/27 09:03:30;;;;;;;7.55;1.08;;;;;;;4.76;74.66;100919.63;6151639;28;20101;-71
2023/03/27 09:06:29;;;;;;;5.85;1.23;;;;;;;5.09;73.52;100912.06;6145419;28;20123;-71
2023/03/27 09:09:46;;;;;;;5.45;1.00;;;;;;;4.97;72.10;100933.94;6145745;28;20032;-71
2023/03/27 09:12:51;;;;;;;5.72;1.17;;;;;;;5.04;71.05;100921.22;6144454;28;20436;-71
2023/03/27 09:16:02;;;;;;;5.93;1.63;;;;;;;4.72;72.08;100919.00;6143874;28;20057;-71
2023/03/27 09:19:27;;;;;;;6.18;1.15;;;;;;;5.04;69.81;100940.44;6144091;28;20115;-71
2023/03/27 09:22:28;;;;;;;6.85;1.15;;;;;;;5.52;69.84;100936.19;6158525;28;20585;-71
2023/03/27 09:25:37;;;;;;;3.15;1.10;;;;;;;5.40;67.95;100944.94;6169310;28;20444;-71
2023/03/27 09:28:52;;;;;;;3.17;0.98;;;;;;;5.33;67.81;100941.03;6169012;28;20540;-70
2023/03/27 09:31:49;;;;;;;2.15;0.88;;;;;;;5.40;68.68;100930.03;6169889;28;20028;-71
2023/03/27 09:34:46;;;;;;;2.97;0.95;;;;;;;5.09;68.79;100943.59;6168173;28;20106;-71
2023/03/27 09:37:42;;;;;;;3.70;0.90;;;;;;;5.63;67.99;100931.00;6162303;28;20036;-71
2023/03/27 09:40:52;;;;;;;5.03;0.88;;;;;;;6.16;65.79;100915.78;6144236;28;20039;-71
2023/03/27 09:43:57;;;;;;;2.58;0.68;;;;;;;6.02;64.28;100931.75;6144635;28;20036;-71
2023/03/27 09:46:58;;;;;;;4.05;1.25;;;;;;;5.49;65.08;100930.31;6144154;28;20365;-71
2023/03/27 09:50:25;;;;;;;4.03;0.93;;;;;;;5.55;66.20;100935.13;6143623;28;20028;-71
2023/03/27 09:53:22;;;;;;;3.30;0.82;;;;;;;5.53;64.08;100929.97;6134735;28;20039;-71
2023/03/27 09:56:17;;;;;;;3.67;1.40;;;;;;;5.53;65.33;100929.97;6156931;28;20032;-71
2023/03/27 09:59:29;;;;;;;1.60;0.77;;;;;;;5.17;64.56;100940.44;6148471;28;20043;-71
2023/03/27 10:02:27;;;;;;;3.03;0.80;;;;;;;4.35;69.64;100946.00;6147153;28;20274;-71
2023/03/27 10:05:24;;;;;;;3.47;1.00;;;;;;;3.58;79.09;100982.50;6148918;28;20060;-71
2023/03/27 10:08:38;;;;;;;2.55;0.80;;;;;;;2.08;88.69;100980.13;6149459;28;20402;-70
2023/03/27 10:11:34;;;;;;;4.13;0.95;;;;;;;1.51;93.96;100979.75;6165600;28;20081;-70
2023/03/27 10:14:33;;;;;;;4.50;1.30;;;;;;;1.51;99.30;100984.13;6173102;28;20067;-69
2023/03/27 10:17:36;;;;;;;4.50;0.95;;;;;;;1.90;100.00;100971.53;6172189;28;20031;-70
2023/03/27 10:20:31;;;;;;;2.88;1.15;;;;;;;2.13;100.00;100981.53;6173577;27;20407;-70
2023/03/27 10:23:29;;;;;;;2.97;1.15;;;;;;;2.28;100.00;101006.00;6172612;28;20042;-70
2023/03/27 10:26:26;;;;;;;5.28;1.42;;;;;;;2.03;100.00;101014.38;6163369;28;20120;-70
2023/03/27 10:29:28;;;;;;;4.18;1.10;;;;;;;1.75;100.00;101008.94;6158681;28;20046;-70
2023/03/27 10:32:45;;;;;;;2.97;0.90;;;;;;;1.35;100.00;100975.44;6172052;28;20031;-70
2023/03/27 10:35:43;;;;;;;4.80;0.75;;;;;;;1.25;100.00;100982.06;6172828;28;20194;-70
2023/03/27 10:38:40;;;;;;;4.65;0.90;;;;;;;1.21;100.00;100986.59;6173898;28;20035;-71
2023/03/27 10:41:35;;;;;;;4.55;1.10;;;;;;;1.50;100.00;100977.22;6172447;28;20067;-70
2023/03/27 10:44:31;;;;;;;8.75;1.50;;;;;;;2.26;100.00;100968.59;6169894;28;20038;-69
2023/03/27 10:47:29;;;;;;;4.27;1.20;;;;;;;2.97;100.00;100972.28;6173525;28;20119;-70
2023/03/27 10:50:32;;;;;;;2.47;1.00;;;;;;;3.82;100.00;100982.75;6171792;28;20043;-70
2023/03/27 10:53:36;;;;;;;2.70;0.85;;;;;;;4.26;100.00;100998.28;6171137;28;20023;-70
2023/03/27 10:57:02;;;;;;;5.93;1.50;;;;;;;4.17;97.14;100994.47;6152586;28;20134;-70
2023/03/27 11:00:17;;;;;;;2.90;1.35;;;;;;;3.37;94.56;100970.72;6123171;28;20496;-70
2023/03/27 11:03:22;;;;;;;6.28;1.25;;;;;;;3.34;95.28;100986.63;6153152;28;20036;-71
2023/03/27 11:06:21;;;;;;;8.15;1.77;;;;;;;4.14;96.31;100981.53;6162804;28;20059;-71
2023/03/27 11:09:36;;;;;;;2.78;1.00;;;;;;;4.93;92.74;100987.63;6158255;28;20036;-71
2023/03/27 11:12:32;;;;;;;4.43;1.02;;;;;;;5.01;89.39;100987.09;6161256;28;20047;-71
2023/03/27 11:15:32;;;;;;;5.25;1.05;;;;;;;4.83;87.63;100978.69;6147303;28;20020;-70
2023/03/27 11:18:29;;;;;;;7.18;1.17;;;;;;;4.70;87.44;100997.03;6158529;28;20420;-70
2023/03/27 11:21:30;;;;;;;1.35;0.68;;;;;;;3.94;87.39;101039.69;6147472;28;20623;-70
2023/03/27 11:24:33;;;;;;;2.78;1.05;;;;;;;1.78;95.33;101079.38;6146151;28;20476;-68
2023/03/27 11:27:42;;;;;;;3.20;0.70;;;;;;;1.41;100.00;101087.44;6146870;28;20085;-71
2023/03/27 11:30:43;;;;;;;4.03;0.88;;;;;;;1.15;100.00;101080.94;6147977;28;20057;-70
2023/03/27 11:33:54;;;;;;;1.58;0.60;;;;;;;1.12;100.00;101057.56;6145666;28;20032;-70
2023/03/27 11:37:35;;;;;;;3.65;0.73;;;;;;;1.54;100.00;101075.44;6149317;28;20032;-69
2023/03/27 11:40:35;;;;;;;2.63;0.63;;;;;;;1.97;100.00;101056.53;6127546;28;20036;-70
2023/03/27 11:43:31;;;;;;;7.40;1.10;;;;;;;2.74;100.00;101048.72;6144153;28;20052;-70
2023/03/27 11:46:42;;;;;;;2.85;0.77;;;;;;;3.14;100.00;101057.72;6145623;28;20047;-70
2023/03/27 11:49:52;;;;;;;1.55;0.57;;;;;;;3.49;100.00;101057.31;6147484;28;20139;-70
2023/03/27 11:53:14;;;;;;;1.77;0.63;;;;;;;3.68;100.00;101056.16;6147102;28;20107;-70
2023/03/27 11:56:20;;;;;;;2.05;0.90;;;;;;;4.00;100.00;101058.50;6135571;28;20036;-72
2023/03/27 11:59:31;;;;;;;1.27;0.70;;;;;;;4.36;100.00;101047.47;6147069;28;20036;-71
2023/03/27 12:02:45;;;;;;;2.13;0.43;;;;;;;4.60;97.02;101040.63;6143784;28;20028;-70
2023/03/27 12:06:04;;;;;;;4.13;0.90;;;;;;;5.14;95.29;101054.50;6169161;28;20059;-72
2023/03/27 12:09:13;;;;;;;1.55;0.70;;;;;;;5.20;92.04;101032.22;6170474;28;20030;-72
2023/03/27 12:12:23;;;;;;;1.70;0.85;;;;;;;5.40;89.29;101036.97;6171471;28;20024;-72
2023/03/27 12:15:34;;;;;;;4.25;0.75;;;;;;;5.46;86.49;101020.78;6170099;28;20032;-72
2023/03/27 12:18:52;;;;;;;2.95;0.77;;;;;;;5.58;82.62;101033.06;6171378;28;20027;-70
2023/03/27 12:22:16;;;;;;;7.13;0.93;;;;;;;5.55;80.82;101043.81;6168426;28;20464;-71
2023/03/27 12:25:47;;;;;;;2.38;0.57;;;;;;;5.21;78.84;101049.69;6170711;28;20559;-72
2023/03/27 12:29:09;;;;;;;3.85;0.93;;;;;;;5.06;74.60;101041.03;6141791;27;20035;-71
2023/03/27 12:32:33;;;;;;;2.53;0.80;;;;;;;5.27;75.05;101041.41;6171259;28;20064;-72
2023/03/27 12:35:38;;;;;;;1.98;0.68;;;;;;;6.37;78.76;101035.34;6169355;28;20031;-72
2023/03/27 12:38:39;;;;;;;1.13;0.50;;;;;;;6.78;73.76;101029.66;6169214;28;20042;-72
2023/03/27 12:41:36;;;;;;;1.52;0.50;;;;;;;6.88;69.23;101006.94;6169631;28;20039;-72
2023/03/27 12:45:03;;;;;;;1.90;0.70;;;;;;;7.28;66.08;100999.50;6170276;28;20039;-72
2023/03/27 12:48:10;;;;;;;2.35;0.45;;;;;;;7.16;64.03;101030.28;6169865;28;20032;-72
2023/03/27 12:51:11;;;;;;;5.05;0.75;;;;;;;6.90;63.03;101034.03;6170605;28;20081;-72
2023/03/27 12:54:29;;;;;;;1.30;0.60;;;;;;;6.25;68.39;101115.25;6169003;28;20164;-72
2023/03/27 12:57:24;;;;;;;0.95;0.35;;;;;;;4.94;79.91;101139.09;6134364;28;20072;-72
2023/03/27 13:00:22;;;;;;;1.30;0.40;;;;;;;2.73;88.08;101143.91;6149730;28;20841;-71
2023/03/27 13:03:30;;;;;;;2.10;0.43;;;;;;;1.77;96.00;101158.69;6144258;28;20077;-70
2023/03/27 13:06:33;;;;;;;3.17;0.75;;;;;;;1.09;100.00;101139.53;6146187;28;20020;-70
2023/03/27 13:10:00;;;;;;;0.60;0.30;;;;;;;0.77;100.00;101168.94;6146107;28;20032;-70
2023/03/27 13:13:17;;;;;;;5.15;1.13;;;;;;;0.50;100.00;101167.63;6147158;28;20070;-71
2023/03/27 13:16:26;;;;;;;1.65;0.93;;;;;;;0.24;100.00;101147.13;6145428;28;20072;-71
2023/03/27 13:19:42;;;;;;;2.15;0.70;;;;;;;0.29;100.00;101153.84;6146034;28;20032;-71
2023/03/27 13:22:59;;;;;;;9.38;1.00;;;;;;;0.36;100.00;101146.56;6145693;28;20032;-72
2023/03/27 13:26:09;;;;;;;3.05;1.35;;;;;;;0.40;100.00;101142.91;6145384;28;20452;-73
2023/03/27 13:29:23;;;;;;;2.08;0.98;;;;;;;0.48;100.00;101161.66;6150411;28;20060;-73
2023/03/27 13:32:38;;;;;;;12.63;5.35;;;;;;;0.44;100.00;101149.66;6171264;28;20039;-74
2023/03/27 13:36:09;;;;;;;0.93;0.45;;;;;;;0.49;100.00;101137.28;6155355;28;20484;-74
2023/03/27 13:39:05;;;;;;;2.92;0.85;;;;;;;1.37;100.00;101112.88;6139099;28;20072;-74
2023/03/27 13:42:03;;;;;;;1.67;0.90;;;;;;;2.00;100.00;101102.59;6150548;28;20082;-73
2023/03/27 13:45:19;;;;;;;8.77;2.53;;;;;;;2.52;100.00;101105.84;6150889;28;20032;-71
2023/03/27 13:48:31;;;;;;;2.17;1.10;;;;;;;2.85;100.00;101088.22;6149233;28;20466;-70
2023/03/27 13:51:41;;;;;;;3.30;1.25;;;;;;;3.17;100.00;101092.44;6150191;28;20111;-70
2023/03/27 13:54:55;;;;;;;2.42;0.90;;;;;;;3.44;100.00;101088.19;6148277;28;20107;-70
2023/03/27 13:58:21;;;;;;;4.57;1.65;;;;;;;3.98;100.00;101098.88;6182998;27;20032;-70
2023/03/27 14:01:32;;;;;;;2.47;0.90;;;;;;;4.23;100.00;101083.31;6155492;28;20040;-70
2023/03/27 14:04:38;;;;;;;3.05;1.00;;;;;;;4.50;100.00;101085.94;6142544;28;20089;-71
2023/03/27 14:07:57;;;;;;;5.05;1.30;;;;;;;4.82;100.00;101068.94;6148791;28;20160;-71
2023/03/27 14:11:17;;;;;;;1.50;0.68;;;;;;;5.01;100.00;101061.53;6149665;28;20468;-72
2023/03/27 14:14:22;;;;;;;2.88;0.90;;;;;;;5.22;94.36;101077.66;6149178;28;20107;-72